ASN logo
Last updated: 16 October 2019
Statuts:
Date:lundi 14 janvier 2019
Heure:ca 08:30
Type/Sous-type:Silhouette image of generic B703 model; specific model in this crash may look slightly different
Boeing 707-3J9C
Opérant pour:Saha Air
Loué à :Islamic Republic of Iran Air Force - IRIAF
Immatriculation: EP-CPP
Numéro de série: 21128/917
Année de Fabrication: 1976
Moteurs: 4 Pratt & Whitney JT3D-3B
Equipage:victimes: / à bord:
Passagers:victimes: / à bord:
Total:victimes: 15 / à bord: 16
Dégats de l'appareil: Détruit
Conséquences: Written off (damaged beyond repair)
Lieu de l'accident:Fat'h Airport (   Iran)
Phase de vol: A l'atterrissage (LDG)
Nature:Cargo
Aéroport de départ:Bishkek-Manas International Airport (FRU/UCFM), Kyrgyzstan
Aéroport de destination:Payam International Airport (PYK/OIIP), Iran
Détails:
A Boeing 707-300 cargo plane, operated for the Iranian Air Force, has crashed near Karaj, Iran, in adverse weather conditions. According to first reports the plane carried 16 persons with 15 fatalities accounted for. One occupant survived the crash. The plane was destroyed.
The aircraft was transporting meat from Bishkek, Kyrgyzstan to Payam International Airport, Iran. Instead of landing on runway 30 at Payam Airport, the aircraft landed on runway 31L at Fat'h Airport. The aircraft went off the runway, smashed through an airport wall and came to rest in a residential area near the airport. A fire broke out.

The runways of the airports of Payam at Fat'h are almost in line. The thresholds of runways 30 and 31L are 10 km apart. The Fat'h runway has a length of 1300 m while the Payam runway is 3659 m long.
Payam Airport offers VOR/DME, NDB/DME and NDB approaches to runway 30.

Sources:
» IRNA
» Previous wrong airport approach at Fat'h Airport

METAR Weather report:
03:00 UTC / 06:30 local time:
OIIP 140300Z 12010KT 3000 SN RA FEW025 SCT035 OVC080 M00/M01 Q1012

04:00 UTC / 07:30 local time:
OIIP 140400Z 16010KT 4000 BR FEW025 SCT035 OVC090 00/M01 Q1012 RERA

05:00 UTC / 08:30 local time:
OIIP 140500Z 14010KT 3000 BR FEW025 SCT035 OVC080 M00/M01 Q1013

06:00 UTC / 09:30 local time:
OIIP 140600Z 13010KT 3000 BR FEW025 SCT035 OVC090 00/M02 Q1013


Photos

photo of Boeing-707-3J9C-	EP-CPP
accident date: 14-01-2019
type: Boeing 707-3J9C
registration: EP-CPP
photo of Boeing-707-3J9C-	EP-CPP
accident date: 14-01-2019
type: Boeing 707-3J9C
registration: EP-CPP
photo of Boeing-707-3J9C-	EP-CPP
accident date: 14-01-2019
type: Boeing 707-3J9C
registration: EP-CPP
photo of Boeing-707-3J9C-	EP-CPP
accident date: 14-01-2019
type: Boeing 707-3J9C
registration: EP-CPP
photo of Boeing-707-3J9C-	EP-CPP
photo of Boeing-707-3J9C-EP-SHK
accident date: 14-01-2019
type: Boeing 707-3J9C
registration: EP-SHK
 

Video, social media

Aircraft history
date registration operator remarks
19 Nov. 1976 5-8312 Boeing first flight
Nov. 1976 5-8312 Imperial Iranian Air Force delivered
Feb 1979 5-8312 Islamic Republic of Iran Air Force - IRIAF
27 Feb 2000 EP-SHK Saha Air
3 August 2009 EP-SHK Saha Air damaged in uncontained engine failure near Ahwaz, Iran
Dec. 2015 5-8312 Islamic Republic of Iran Air Force - IRIAF
May 2016 EP-CPP Saha Air

Plan
Ce plan montre l'aéroport de départ ainsi que la supposée destination du vol. La ligne fixe reliant les deux aéroports n'est pas le plan de vol exact.
La distance entre Bishkek-Manas International Airport et Payam International Airport est de 2163 km (1352 miles).
Accident location: Approximate; accuracy within a few kilometers.

Les informations ci-dessus ne représentent pas l'opinion de la 'Flight Safety Foundation' ou de 'Aviation Safety Network' sur les causes de l'accident. Ces informations prélimimaires sont basées sur les faits tel qu'ils sont connus à ce jour.
languages: languages

Share

Boeing 707

  • 858 built
  • 174ème loss
  • 76ème accident fatal
  • le accident 38ème le plus grave (à ce moment là)
  • le accident 38ème le plus grave (en ce moment)
» safety profile

 Iran
  • le accident 26ème le plus grave (à ce moment là)
  • le accident 26ème le plus grave (en ce moment)
» safety profile